sensor_id;sensor_type;location;lat;lon;timestamp;P1;durP1;ratioP1;P2;durP2;ratioP2
42964;SDS011;28604;51.204;22.552;2024-02-21T00:01:08;14.18;;;10.85;;
42964;SDS011;28604;51.204;22.552;2024-02-21T00:03:39;16.98;;;10.23;;
42964;SDS011;28604;51.204;22.552;2024-02-21T00:06:05;11.95;;;9.05;;
42964;SDS011;28604;51.204;22.552;2024-02-21T00:08:31;12.05;;;9.13;;
42964;SDS011;28604;51.204;22.552;2024-02-21T00:10:57;12.65;;;8.00;;
42964;SDS011;28604;51.204;22.552;2024-02-21T00:13:23;10.55;;;7.85;;
42964;SDS011;28604;51.204;22.552;2024-02-21T00:15:50;8.80;;;7.05;;
42964;SDS011;28604;51.204;22.552;2024-02-21T00:18:15;9.75;;;7.72;;
42964;SDS011;28604;51.204;22.552;2024-02-21T00:20:41;9.93;;;7.57;;
42964;SDS011;28604;51.204;22.552;2024-02-21T00:23:07;11.30;;;7.95;;
42964;SDS011;28604;51.204;22.552;2024-02-21T00:25:33;9.52;;;7.07;;
42964;SDS011;28604;51.204;22.552;2024-02-21T00:27:59;12.75;;;7.75;;
42964;SDS011;28604;51.204;22.552;2024-02-21T00:30:25;10.18;;;7.15;;
42964;SDS011;28604;51.204;22.552;2024-02-21T00:32:51;9.68;;;6.55;;
42964;SDS011;28604;51.204;22.552;2024-02-21T00:35:17;11.23;;;6.50;;
42964;SDS011;28604;51.204;22.552;2024-02-21T00:37:43;11.70;;;7.40;;
42964;SDS011;28604;51.204;22.552;2024-02-21T00:40:09;13.02;;;7.22;;
42964;SDS011;28604;51.204;22.552;2024-02-21T00:42:36;12.40;;;6.70;;
42964;SDS011;28604;51.204;22.552;2024-02-21T00:45:02;13.02;;;6.15;;
42964;SDS011;28604;51.204;22.552;2024-02-21T00:47:28;7.85;;;5.75;;
42964;SDS011;28604;51.204;22.552;2024-02-21T00:49:55;11.38;;;5.93;;
42964;SDS011;28604;51.204;22.552;2024-02-21T00:52:21;8.10;;;5.65;;
42964;SDS011;28604;51.204;22.552;2024-02-21T00:54:47;9.70;;;5.35;;
42964;SDS011;28604;51.204;22.552;2024-02-21T00:57:14;8.75;;;5.85;;
42964;SDS011;28604;51.204;22.552;2024-02-21T00:59:41;10.80;;;6.88;;
42964;SDS011;28604;51.204;22.552;2024-02-21T01:02:07;12.18;;;5.53;;
42964;SDS011;28604;51.204;22.552;2024-02-21T01:04:34;9.15;;;5.30;;
42964;SDS011;28604;51.204;22.552;2024-02-21T01:07:01;7.75;;;4.93;;
42964;SDS011;28604;51.204;22.552;2024-02-21T01:09:27;9.57;;;4.70;;
42964;SDS011;28604;51.204;22.552;2024-02-21T01:11:53;7.10;;;4.13;;
42964;SDS011;28604;51.204;22.552;2024-02-21T01:14:19;7.38;;;4.35;;
42964;SDS011;28604;51.204;22.552;2024-02-21T01:16:45;9.43;;;4.88;;
42964;SDS011;28604;51.204;22.552;2024-02-21T01:19:11;11.52;;;4.40;;
42964;SDS011;28604;51.204;22.552;2024-02-21T01:21:37;8.88;;;4.00;;
42964;SDS011;28604;51.204;22.552;2024-02-21T01:24:03;8.70;;;4.15;;
42964;SDS011;28604;51.204;22.552;2024-02-21T01:26:29;10.80;;;5.32;;
42964;SDS011;28604;51.204;22.552;2024-02-21T01:28:55;7.05;;;4.47;;
42964;SDS011;28604;51.204;22.552;2024-02-21T01:31:21;11.57;;;5.00;;
42964;SDS011;28604;51.204;22.552;2024-02-21T01:33:47;11.38;;;5.05;;
42964;SDS011;28604;51.204;22.552;2024-02-21T01:36:13;6.72;;;4.13;;
42964;SDS011;28604;51.204;22.552;2024-02-21T01:38:39;9.32;;;4.20;;
42964;SDS011;28604;51.204;22.552;2024-02-21T01:41:05;10.32;;;4.72;;
42964;SDS011;28604;51.204;22.552;2024-02-21T01:43:31;10.05;;;4.72;;
42964;SDS011;28604;51.204;22.552;2024-02-21T01:45:57;7.53;;;3.75;;
42964;SDS011;28604;51.204;22.552;2024-02-21T01:48:24;7.68;;;3.60;;
42964;SDS011;28604;51.204;22.552;2024-02-21T01:50:50;6.00;;;3.33;;
42964;SDS011;28604;51.204;22.552;2024-02-21T01:53:29;8.57;;;3.13;;
42964;SDS011;28604;51.204;22.552;2024-02-21T01:55:58;7.28;;;3.03;;
42964;SDS011;28604;51.204;22.552;2024-02-21T01:58:24;7.93;;;3.05;;
42964;SDS011;28604;51.204;22.552;2024-02-21T02:00:51;8.00;;;3.42;;
42964;SDS011;28604;51.204;22.552;2024-02-21T02:03:17;10.00;;;3.38;;
42964;SDS011;28604;51.204;22.552;2024-02-21T02:05:46;6.93;;;2.55;;
42964;SDS011;28604;51.204;22.552;2024-02-21T02:08:14;11.50;;;3.30;;
42964;SDS011;28604;51.204;22.552;2024-02-21T02:10:49;6.60;;;3.05;;
42964;SDS011;28604;51.204;22.552;2024-02-21T02:13:16;8.15;;;3.22;;
42964;SDS011;28604;51.204;22.552;2024-02-21T02:15:42;8.98;;;2.90;;
42964;SDS011;28604;51.204;22.552;2024-02-21T02:18:13;8.23;;;2.88;;
42964;SDS011;28604;51.204;22.552;2024-02-21T02:20:40;6.63;;;2.13;;
42964;SDS011;28604;51.204;22.552;2024-02-21T02:25:50;4.28;;;1.67;;
42964;SDS011;28604;51.204;22.552;2024-02-21T02:28:17;4.78;;;1.60;;
42964;SDS011;28604;51.204;22.552;2024-02-21T02:30:44;6.63;;;1.35;;
42964;SDS011;28604;51.204;22.552;2024-02-21T02:33:11;6.60;;;1.40;;
42964;SDS011;28604;51.204;22.552;2024-02-21T02:35:37;6.50;;;1.40;;
42964;SDS011;28604;51.204;22.552;2024-02-21T02:38:03;3.65;;;1.38;;
42964;SDS011;28604;51.204;22.552;2024-02-21T02:40:30;3.33;;;1.23;;
42964;SDS011;28604;51.204;22.552;2024-02-21T02:42:57;1.58;;;1.35;;
42964;SDS011;28604;51.204;22.552;2024-02-21T02:45:23;6.30;;;1.48;;
42964;SDS011;28604;51.204;22.552;2024-02-21T02:47:49;6.32;;;1.45;;
42964;SDS011;28604;51.204;22.552;2024-02-21T02:50:15;7.57;;;2.45;;
42964;SDS011;28604;51.204;22.552;2024-02-21T02:52:41;6.30;;;1.13;;
42964;SDS011;28604;51.204;22.552;2024-02-21T02:55:07;5.75;;;1.35;;
42964;SDS011;28604;51.204;22.552;2024-02-21T02:57:33;7.47;;;1.52;;
42964;SDS011;28604;51.204;22.552;2024-02-21T02:59:59;4.70;;;0.88;;
42964;SDS011;28604;51.204;22.552;2024-02-21T03:02:25;4.53;;;1.20;;
42964;SDS011;28604;51.204;22.552;2024-02-21T03:04:51;3.10;;;1.33;;
42964;SDS011;28604;51.204;22.552;2024-02-21T03:07:17;7.72;;;1.25;;
42964;SDS011;28604;51.204;22.552;2024-02-21T03:09:43;1.95;;;0.85;;
42964;SDS011;28604;51.204;22.552;2024-02-21T03:12:09;2.53;;;1.10;;
42964;SDS011;28604;51.204;22.552;2024-02-21T03:14:35;5.40;;;1.67;;
42964;SDS011;28604;51.204;22.552;2024-02-21T03:17:02;3.10;;;1.20;;
42964;SDS011;28604;51.204;22.552;2024-02-21T03:19:28;5.93;;;1.10;;
42964;SDS011;28604;51.204;22.552;2024-02-21T03:21:55;9.07;;;1.33;;
42964;SDS011;28604;51.204;22.552;2024-02-21T03:24:21;7.38;;;1.40;;
42964;SDS011;28604;51.204;22.552;2024-02-21T03:26:47;9.07;;;1.80;;
42964;SDS011;28604;51.204;22.552;2024-02-21T03:29:15;5.38;;;1.40;;
42964;SDS011;28604;51.204;22.552;2024-02-21T03:31:41;3.70;;;1.17;;
42964;SDS011;28604;51.204;22.552;2024-02-21T03:34:08;5.90;;;1.48;;
42964;SDS011;28604;51.204;22.552;2024-02-21T03:36:35;5.25;;;1.20;;
42964;SDS011;28604;51.204;22.552;2024-02-21T03:39:01;3.53;;;0.95;;
42964;SDS011;28604;51.204;22.552;2024-02-21T03:41:28;9.35;;;1.60;;
42964;SDS011;28604;51.204;22.552;2024-02-21T03:43:54;6.22;;;1.42;;
42964;SDS011;28604;51.204;22.552;2024-02-21T03:46:20;8.13;;;1.92;;
42964;SDS011;28604;51.204;22.552;2024-02-21T03:48:46;6.18;;;2.85;;
42964;SDS011;28604;51.204;22.552;2024-02-21T03:51:12;6.93;;;1.90;;
42964;SDS011;28604;51.204;22.552;2024-02-21T03:53:39;2.30;;;1.98;;
42964;SDS011;28604;51.204;22.552;2024-02-21T03:56:05;4.78;;;1.80;;
42964;SDS011;28604;51.204;22.552;2024-02-21T03:58:31;8.60;;;2.67;;
42964;SDS011;28604;51.204;22.552;2024-02-21T04:00:59;9.38;;;2.70;;
42964;SDS011;28604;51.204;22.552;2024-02-21T04:03:25;7.75;;;2.80;;
42964;SDS011;28604;51.204;22.552;2024-02-21T04:05:51;6.63;;;3.00;;
42964;SDS011;28604;51.204;22.552;2024-02-21T04:08:17;11.75;;;3.45;;
42964;SDS011;28604;51.204;22.552;2024-02-21T04:10:44;11.85;;;2.88;;
42964;SDS011;28604;51.204;22.552;2024-02-21T04:13:09;11.85;;;2.97;;
42964;SDS011;28604;51.204;22.552;2024-02-21T04:15:36;7.10;;;2.85;;
42964;SDS011;28604;51.204;22.552;2024-02-21T04:18:02;8.15;;;2.38;;
42964;SDS011;28604;51.204;22.552;2024-02-21T04:20:31;8.55;;;3.17;;
42964;SDS011;28604;51.204;22.552;2024-02-21T04:22:57;7.70;;;2.40;;
42964;SDS011;28604;51.204;22.552;2024-02-21T04:25:23;8.18;;;2.50;;
42964;SDS011;28604;51.204;22.552;2024-02-21T04:27:49;9.98;;;2.63;;
42964;SDS011;28604;51.204;22.552;2024-02-21T04:30:15;6.90;;;2.40;;
42964;SDS011;28604;51.204;22.552;2024-02-21T04:32:42;9.48;;;2.90;;
42964;SDS011;28604;51.204;22.552;2024-02-21T04:35:08;6.05;;;2.53;;
42964;SDS011;28604;51.204;22.552;2024-02-21T04:37:34;6.22;;;2.85;;
42964;SDS011;28604;51.204;22.552;2024-02-21T04:40:00;6.68;;;2.90;;
42964;SDS011;28604;51.204;22.552;2024-02-21T04:42:26;6.70;;;3.35;;
42964;SDS011;28604;51.204;22.552;2024-02-21T04:44:52;5.40;;;2.28;;
42964;SDS011;28604;51.204;22.552;2024-02-21T04:47:18;6.45;;;2.03;;
42964;SDS011;28604;51.204;22.552;2024-02-21T04:49:49;8.73;;;2.72;;
42964;SDS011;28604;51.204;22.552;2024-02-21T04:52:15;6.90;;;2.63;;
42964;SDS011;28604;51.204;22.552;2024-02-21T04:54:41;18.25;;;2.35;;
42964;SDS011;28604;51.204;22.552;2024-02-21T04:57:07;8.32;;;2.78;;
42964;SDS011;28604;51.204;22.552;2024-02-21T04:59:35;9.00;;;2.65;;
42964;SDS011;28604;51.204;22.552;2024-02-21T05:02:02;8.10;;;2.17;;
42964;SDS011;28604;51.204;22.552;2024-02-21T05:04:28;6.60;;;2.63;;
42964;SDS011;28604;51.204;22.552;2024-02-21T05:06:54;7.20;;;2.70;;
42964;SDS011;28604;51.204;22.552;2024-02-21T05:09:20;7.80;;;2.58;;
42964;SDS011;28604;51.204;22.552;2024-02-21T05:11:46;8.20;;;3.22;;
42964;SDS011;28604;51.204;22.552;2024-02-21T05:14:13;7.20;;;2.22;;
42964;SDS011;28604;51.204;22.552;2024-02-21T05:16:39;6.90;;;2.22;;
42964;SDS011;28604;51.204;22.552;2024-02-21T05:19:05;11.60;;;2.30;;
42964;SDS011;28604;51.204;22.552;2024-02-21T05:21:31;5.60;;;2.55;;
42964;SDS011;28604;51.204;22.552;2024-02-21T05:23:57;15.40;;;2.92;;
42964;SDS011;28604;51.204;22.552;2024-02-21T05:26:24;5.78;;;2.95;;
42964;SDS011;28604;51.204;22.552;2024-02-21T05:28:51;9.30;;;2.10;;
42964;SDS011;28604;51.204;22.552;2024-02-21T05:31:17;7.60;;;2.47;;
42964;SDS011;28604;51.204;22.552;2024-02-21T05:33:44;7.38;;;1.50;;
42964;SDS011;28604;51.204;22.552;2024-02-21T05:36:11;7.22;;;2.10;;
42964;SDS011;28604;51.204;22.552;2024-02-21T05:38:37;5.55;;;2.20;;
42964;SDS011;28604;51.204;22.552;2024-02-21T05:41:03;7.97;;;2.38;;
42964;SDS011;28604;51.204;22.552;2024-02-21T05:43:30;11.23;;;3.20;;
42964;SDS011;28604;51.204;22.552;2024-02-21T05:45:56;9.85;;;3.40;;
42964;SDS011;28604;51.204;22.552;2024-02-21T05:48:22;7.10;;;2.97;;
42964;SDS011;28604;51.204;22.552;2024-02-21T05:50:48;7.90;;;3.70;;
42964;SDS011;28604;51.204;22.552;2024-02-21T05:53:15;10.55;;;3.53;;
42964;SDS011;28604;51.204;22.552;2024-02-21T05:55:41;8.05;;;3.13;;
42964;SDS011;28604;51.204;22.552;2024-02-21T05:58:07;14.13;;;4.07;;
42964;SDS011;28604;51.204;22.552;2024-02-21T06:00:36;14.90;;;3.75;;
42964;SDS011;28604;51.204;22.552;2024-02-21T06:03:03;9.73;;;3.10;;
42964;SDS011;28604;51.204;22.552;2024-02-21T06:05:29;16.50;;;3.35;;
42964;SDS011;28604;51.204;22.552;2024-02-21T06:07:56;6.00;;;3.08;;
42964;SDS011;28604;51.204;22.552;2024-02-21T06:10:22;9.02;;;3.40;;
42964;SDS011;28604;51.204;22.552;2024-02-21T06:12:48;14.85;;;3.78;;
42964;SDS011;28604;51.204;22.552;2024-02-21T06:15:14;10.55;;;4.10;;
42964;SDS011;28604;51.204;22.552;2024-02-21T06:17:41;11.93;;;3.90;;
42964;SDS011;28604;51.204;22.552;2024-02-21T06:20:07;13.75;;;4.70;;
42964;SDS011;28604;51.204;22.552;2024-02-21T06:22:33;13.13;;;4.70;;
42964;SDS011;28604;51.204;22.552;2024-02-21T06:24:59;9.55;;;4.00;;
42964;SDS011;28604;51.204;22.552;2024-02-21T06:27:25;10.25;;;4.50;;
42964;SDS011;28604;51.204;22.552;2024-02-21T06:29:51;11.05;;;4.90;;
42964;SDS011;28604;51.204;22.552;2024-02-21T06:32:17;13.23;;;5.18;;
42964;SDS011;28604;51.204;22.552;2024-02-21T06:34:43;10.52;;;4.07;;
42964;SDS011;28604;51.204;22.552;2024-02-21T06:37:09;13.32;;;4.68;;
42964;SDS011;28604;51.204;22.552;2024-02-21T06:39:35;8.38;;;4.47;;
42964;SDS011;28604;51.204;22.552;2024-02-21T06:42:03;14.27;;;4.03;;
42964;SDS011;28604;51.204;22.552;2024-02-21T06:44:30;9.55;;;3.95;;
42964;SDS011;28604;51.204;22.552;2024-02-21T06:46:57;11.15;;;4.38;;
42964;SDS011;28604;51.204;22.552;2024-02-21T06:49:25;10.00;;;4.60;;
42964;SDS011;28604;51.204;22.552;2024-02-21T06:51:51;7.53;;;3.85;;
42964;SDS011;28604;51.204;22.552;2024-02-21T06:54:17;11.65;;;4.13;;
42964;SDS011;28604;51.204;22.552;2024-02-21T06:56:43;10.02;;;4.53;;
42964;SDS011;28604;51.204;22.552;2024-02-21T06:59:09;8.23;;;4.88;;
42964;SDS011;28604;51.204;22.552;2024-02-21T07:01:36;13.02;;;4.90;;
42964;SDS011;28604;51.204;22.552;2024-02-21T07:04:02;19.17;;;4.60;;
42964;SDS011;28604;51.204;22.552;2024-02-21T07:06:28;10.88;;;5.18;;
42964;SDS011;28604;51.204;22.552;2024-02-21T07:08:54;13.75;;;5.03;;
42964;SDS011;28604;51.204;22.552;2024-02-21T07:11:20;17.88;;;5.00;;
42964;SDS011;28604;51.204;22.552;2024-02-21T07:13:46;12.68;;;5.03;;
42964;SDS011;28604;51.204;22.552;2024-02-21T07:16:12;11.30;;;5.45;;
42964;SDS011;28604;51.204;22.552;2024-02-21T07:18:38;17.70;;;5.28;;
42964;SDS011;28604;51.204;22.552;2024-02-21T07:21:04;14.25;;;5.90;;
42964;SDS011;28604;51.204;22.552;2024-02-21T07:23:30;12.38;;;5.05;;
42964;SDS011;28604;51.204;22.552;2024-02-21T07:25:56;13.10;;;5.10;;
42964;SDS011;28604;51.204;22.552;2024-02-21T07:28:22;13.88;;;5.13;;
42964;SDS011;28604;51.204;22.552;2024-02-21T07:30:48;17.33;;;5.47;;
42964;SDS011;28604;51.204;22.552;2024-02-21T07:33:14;13.38;;;6.03;;
42964;SDS011;28604;51.204;22.552;2024-02-21T07:35:40;13.70;;;5.82;;
42964;SDS011;28604;51.204;22.552;2024-02-21T07:38:07;18.10;;;6.03;;
42964;SDS011;28604;51.204;22.552;2024-02-21T07:40:38;14.70;;;6.15;;
42964;SDS011;28604;51.204;22.552;2024-02-21T07:43:04;13.18;;;5.05;;
42964;SDS011;28604;51.204;22.552;2024-02-21T07:45:30;13.70;;;5.40;;
42964;SDS011;28604;51.204;22.552;2024-02-21T07:47:56;13.10;;;5.38;;
42964;SDS011;28604;51.204;22.552;2024-02-21T07:50:22;11.27;;;4.85;;
42964;SDS011;28604;51.204;22.552;2024-02-21T07:52:48;17.45;;;5.30;;
42964;SDS011;28604;51.204;22.552;2024-02-21T07:55:14;11.77;;;5.47;;
42964;SDS011;28604;51.204;22.552;2024-02-21T07:57:40;19.30;;;6.28;;
42964;SDS011;28604;51.204;22.552;2024-02-21T08:00:07;14.05;;;5.80;;
42964;SDS011;28604;51.204;22.552;2024-02-21T08:02:39;17.15;;;6.05;;
42964;SDS011;28604;51.204;22.552;2024-02-21T08:05:05;18.85;;;6.35;;
42964;SDS011;28604;51.204;22.552;2024-02-21T08:07:31;21.58;;;6.00;;
42964;SDS011;28604;51.204;22.552;2024-02-21T08:09:57;12.50;;;6.03;;
42964;SDS011;28604;51.204;22.552;2024-02-21T08:12:23;21.80;;;8.25;;
42964;SDS011;28604;51.204;22.552;2024-02-21T08:14:49;20.17;;;6.72;;
42964;SDS011;28604;51.204;22.552;2024-02-21T08:17:15;20.15;;;7.40;;
42964;SDS011;28604;51.204;22.552;2024-02-21T08:19:41;20.55;;;8.02;;
42964;SDS011;28604;51.204;22.552;2024-02-21T08:22:07;16.90;;;7.63;;
42964;SDS011;28604;51.204;22.552;2024-02-21T08:24:33;19.02;;;7.72;;
42964;SDS011;28604;51.204;22.552;2024-02-21T08:26:59;18.63;;;8.05;;
42964;SDS011;28604;51.204;22.552;2024-02-21T08:29:25;20.40;;;7.80;;
42964;SDS011;28604;51.204;22.552;2024-02-21T08:31:51;26.08;;;9.00;;
42964;SDS011;28604;51.204;22.552;2024-02-21T08:34:18;18.20;;;8.20;;
42964;SDS011;28604;51.204;22.552;2024-02-21T08:36:44;15.73;;;8.13;;
42964;SDS011;28604;51.204;22.552;2024-02-21T08:39:10;24.88;;;8.38;;
42964;SDS011;28604;51.204;22.552;2024-02-21T08:41:36;15.73;;;7.88;;
42964;SDS011;28604;51.204;22.552;2024-02-21T08:44:03;16.08;;;7.32;;
42964;SDS011;28604;51.204;22.552;2024-02-21T08:46:29;19.10;;;7.80;;
42964;SDS011;28604;51.204;22.552;2024-02-21T08:48:55;20.88;;;7.63;;
42964;SDS011;28604;51.204;22.552;2024-02-21T08:51:21;16.98;;;7.00;;
42964;SDS011;28604;51.204;22.552;2024-02-21T08:53:47;19.02;;;6.85;;
42964;SDS011;28604;51.204;22.552;2024-02-21T08:56:13;17.15;;;6.45;;
42964;SDS011;28604;51.204;22.552;2024-02-21T08:58:40;17.27;;;7.22;;
42964;SDS011;28604;51.204;22.552;2024-02-21T09:01:06;19.38;;;7.28;;
42964;SDS011;28604;51.204;22.552;2024-02-21T09:03:39;17.95;;;7.03;;
42964;SDS011;28604;51.204;22.552;2024-02-21T09:06:05;16.98;;;6.82;;
42964;SDS011;28604;51.204;22.552;2024-02-21T09:08:32;15.80;;;7.35;;
42964;SDS011;28604;51.204;22.552;2024-02-21T09:10:59;19.33;;;7.65;;
42964;SDS011;28604;51.204;22.552;2024-02-21T09:13:27;13.90;;;7.22;;
42964;SDS011;28604;51.204;22.552;2024-02-21T09:15:53;12.90;;;6.60;;
42964;SDS011;28604;51.204;22.552;2024-02-21T09:18:20;16.83;;;7.43;;
42964;SDS011;28604;51.204;22.552;2024-02-21T09:20:45;17.73;;;7.88;;
42964;SDS011;28604;51.204;22.552;2024-02-21T09:23:13;13.27;;;7.38;;
42964;SDS011;28604;51.204;22.552;2024-02-21T09:25:39;17.27;;;7.70;;
42964;SDS011;28604;51.204;22.552;2024-02-21T09:28:05;13.68;;;7.38;;
42964;SDS011;28604;51.204;22.552;2024-02-21T09:30:31;15.00;;;7.22;;
42964;SDS011;28604;51.204;22.552;2024-02-21T09:32:58;23.05;;;8.18;;
42964;SDS011;28604;51.204;22.552;2024-02-21T09:35:26;21.17;;;8.07;;
42964;SDS011;28604;51.204;22.552;2024-02-21T09:37:53;25.90;;;8.95;;
42964;SDS011;28604;51.204;22.552;2024-02-21T09:40:20;20.58;;;8.57;;
42964;SDS011;28604;51.204;22.552;2024-02-21T09:42:46;17.33;;;7.10;;
42964;SDS011;28604;51.204;22.552;2024-02-21T09:45:20;18.23;;;8.02;;
42964;SDS011;28604;51.204;22.552;2024-02-21T09:47:50;17.95;;;9.02;;
42964;SDS011;28604;51.204;22.552;2024-02-21T09:50:38;19.25;;;7.50;;
42964;SDS011;28604;51.204;22.552;2024-02-21T09:53:06;16.58;;;8.20;;
42964;SDS011;28604;51.204;22.552;2024-02-21T09:55:33;18.55;;;8.15;;
42964;SDS011;28604;51.204;22.552;2024-02-21T09:58:03;16.58;;;8.23;;
42964;SDS011;28604;51.204;22.552;2024-02-21T10:00:29;28.30;;;8.48;;
42964;SDS011;28604;51.204;22.552;2024-02-21T10:02:56;18.95;;;7.30;;
42964;SDS011;28604;51.204;22.552;2024-02-21T10:05:22;21.42;;;8.57;;
42964;SDS011;28604;51.204;22.552;2024-02-21T10:07:50;17.13;;;7.43;;
42964;SDS011;28604;51.204;22.552;2024-02-21T10:10:17;18.65;;;8.50;;
42964;SDS011;28604;51.204;22.552;2024-02-21T10:12:50;21.63;;;9.15;;
42964;SDS011;28604;51.204;22.552;2024-02-21T10:15:20;22.58;;;8.68;;
42964;SDS011;28604;51.204;22.552;2024-02-21T10:17:50;19.92;;;8.30;;
42964;SDS011;28604;51.204;22.552;2024-02-21T10:20:24;21.70;;;8.63;;
42964;SDS011;28604;51.204;22.552;2024-02-21T10:22:59;15.68;;;8.45;;
42964;SDS011;28604;51.204;22.552;2024-02-21T10:25:39;16.10;;;9.23;;
42964;SDS011;28604;51.204;22.552;2024-02-21T10:28:11;17.75;;;9.00;;
42964;SDS011;28604;51.204;22.552;2024-02-21T10:30:37;18.30;;;8.48;;
42964;SDS011;28604;51.204;22.552;2024-02-21T10:33:04;15.75;;;8.32;;
42964;SDS011;28604;51.204;22.552;2024-02-21T10:35:32;18.55;;;8.65;;
42964;SDS011;28604;51.204;22.552;2024-02-21T10:37:59;16.38;;;8.65;;
42964;SDS011;28604;51.204;22.552;2024-02-21T10:40:25;20.55;;;9.57;;
42964;SDS011;28604;51.204;22.552;2024-02-21T10:42:59;13.32;;;9.70;;
42964;SDS011;28604;51.204;22.552;2024-02-21T10:45:29;23.63;;;10.68;;
42964;SDS011;28604;51.204;22.552;2024-02-21T10:48:06;22.05;;;10.77;;
42964;SDS011;28604;51.204;22.552;2024-02-21T10:50:37;23.45;;;9.80;;
42964;SDS011;28604;51.204;22.552;2024-02-21T10:56:31;24.50;;;10.02;;
42964;SDS011;28604;51.204;22.552;2024-02-21T10:59:02;21.58;;;9.25;;
42964;SDS011;28604;51.204;22.552;2024-02-21T11:01:32;21.50;;;10.00;;
42964;SDS011;28604;51.204;22.552;2024-02-21T11:04:07;25.88;;;11.85;;
42964;SDS011;28604;51.204;22.552;2024-02-21T11:06:36;21.02;;;10.65;;
42964;SDS011;28604;51.204;22.552;2024-02-21T11:11:48;20.38;;;10.18;;
42964;SDS011;28604;51.204;22.552;2024-02-21T11:16:43;20.27;;;10.30;;
42964;SDS011;28604;51.204;22.552;2024-02-21T11:19:20;21.33;;;9.48;;
42964;SDS011;28604;51.204;22.552;2024-02-21T11:21:47;25.40;;;10.82;;
42964;SDS011;28604;51.204;22.552;2024-02-21T11:24:14;21.38;;;11.05;;
42964;SDS011;28604;51.204;22.552;2024-02-21T11:29:43;25.38;;;10.30;;
42964;SDS011;28604;51.204;22.552;2024-02-21T11:32:19;24.55;;;11.23;;
42964;SDS011;28604;51.204;22.552;2024-02-21T11:34:56;25.35;;;11.65;;
42964;SDS011;28604;51.204;22.552;2024-02-21T11:37:27;25.38;;;9.63;;
42964;SDS011;28604;51.204;22.552;2024-02-21T11:39:57;23.55;;;10.23;;
42964;SDS011;28604;51.204;22.552;2024-02-21T11:42:26;18.58;;;8.98;;
42964;SDS011;28604;51.204;22.552;2024-02-21T11:44:54;19.20;;;8.35;;
42964;SDS011;28604;51.204;22.552;2024-02-21T11:47:22;20.02;;;9.60;;
42964;SDS011;28604;51.204;22.552;2024-02-21T11:49:48;18.58;;;8.18;;
42964;SDS011;28604;51.204;22.552;2024-02-21T11:52:22;14.20;;;7.32;;
42964;SDS011;28604;51.204;22.552;2024-02-21T11:54:50;15.00;;;8.13;;
42964;SDS011;28604;51.204;22.552;2024-02-21T11:57:17;17.13;;;7.90;;
42964;SDS011;28604;51.204;22.552;2024-02-21T11:59:44;16.95;;;6.88;;
42964;SDS011;28604;51.204;22.552;2024-02-21T12:02:11;15.57;;;6.82;;
42964;SDS011;28604;51.204;22.552;2024-02-21T12:04:37;13.32;;;6.85;;
42964;SDS011;28604;51.204;22.552;2024-02-21T12:07:04;15.40;;;6.88;;
42964;SDS011;28604;51.204;22.552;2024-02-21T12:09:31;13.63;;;7.18;;
42964;SDS011;28604;51.204;22.552;2024-02-21T12:12:00;13.63;;;6.65;;
42964;SDS011;28604;51.204;22.552;2024-02-21T12:14:31;12.80;;;5.60;;
42964;SDS011;28604;51.204;22.552;2024-02-21T12:16:59;16.73;;;6.47;;
42964;SDS011;28604;51.204;22.552;2024-02-21T12:19:30;16.05;;;6.25;;
42964;SDS011;28604;51.204;22.552;2024-02-21T12:21:58;20.67;;;5.93;;
42964;SDS011;28604;51.204;22.552;2024-02-21T12:24:25;12.15;;;4.97;;
42964;SDS011;28604;51.204;22.552;2024-02-21T12:26:52;13.45;;;4.57;;
42964;SDS011;28604;51.204;22.552;2024-02-21T12:29:19;10.07;;;4.50;;
42964;SDS011;28604;51.204;22.552;2024-02-21T12:31:46;12.95;;;5.10;;
42964;SDS011;28604;51.204;22.552;2024-02-21T12:34:13;13.27;;;4.90;;
42964;SDS011;28604;51.204;22.552;2024-02-21T12:36:44;16.80;;;4.75;;
42964;SDS011;28604;51.204;22.552;2024-02-21T12:39:12;18.13;;;5.55;;
42964;SDS011;28604;51.204;22.552;2024-02-21T12:41:38;14.23;;;4.78;;
42964;SDS011;28604;51.204;22.552;2024-02-21T12:44:07;13.73;;;5.38;;
42964;SDS011;28604;51.204;22.552;2024-02-21T12:46:33;15.52;;;5.65;;
42964;SDS011;28604;51.204;22.552;2024-02-21T12:49:00;11.88;;;5.47;;
42964;SDS011;28604;51.204;22.552;2024-02-21T12:51:27;16.38;;;5.60;;
42964;SDS011;28604;51.204;22.552;2024-02-21T12:53:53;16.80;;;5.80;;
42964;SDS011;28604;51.204;22.552;2024-02-21T12:56:20;11.45;;;5.65;;
42964;SDS011;28604;51.204;22.552;2024-02-21T12:58:46;14.55;;;5.60;;
42964;SDS011;28604;51.204;22.552;2024-02-21T13:01:12;18.55;;;6.40;;
42964;SDS011;28604;51.204;22.552;2024-02-21T13:03:38;17.17;;;6.78;;
42964;SDS011;28604;51.204;22.552;2024-02-21T13:06:04;13.50;;;6.95;;
42964;SDS011;28604;51.204;22.552;2024-02-21T13:08:32;16.75;;;6.85;;
42964;SDS011;28604;51.204;22.552;2024-02-21T13:10:59;15.43;;;6.68;;
42964;SDS011;28604;51.204;22.552;2024-02-21T13:13:25;21.75;;;6.60;;
42964;SDS011;28604;51.204;22.552;2024-02-21T13:15:52;14.80;;;6.18;;
42964;SDS011;28604;51.204;22.552;2024-02-21T13:18:18;15.32;;;6.10;;
42964;SDS011;28604;51.204;22.552;2024-02-21T13:20:44;18.67;;;6.10;;
42964;SDS011;28604;51.204;22.552;2024-02-21T13:23:10;12.98;;;5.07;;
42964;SDS011;28604;51.204;22.552;2024-02-21T13:25:36;20.48;;;6.32;;
42964;SDS011;28604;51.204;22.552;2024-02-21T13:28:02;18.27;;;5.75;;
42964;SDS011;28604;51.204;22.552;2024-02-21T13:30:28;18.17;;;5.88;;
42964;SDS011;28604;51.204;22.552;2024-02-21T13:32:55;25.20;;;6.63;;
42964;SDS011;28604;51.204;22.552;2024-02-21T13:35:21;21.58;;;5.90;;
42964;SDS011;28604;51.204;22.552;2024-02-21T13:37:47;19.65;;;6.28;;
42964;SDS011;28604;51.204;22.552;2024-02-21T13:40:13;20.52;;;5.82;;
42964;SDS011;28604;51.204;22.552;2024-02-21T13:42:39;16.35;;;6.25;;
42964;SDS011;28604;51.204;22.552;2024-02-21T13:45:06;24.73;;;7.40;;
42964;SDS011;28604;51.204;22.552;2024-02-21T13:47:33;16.27;;;6.95;;
42964;SDS011;28604;51.204;22.552;2024-02-21T13:49:59;22.20;;;7.78;;
42964;SDS011;28604;51.204;22.552;2024-02-21T13:52:25;16.65;;;6.43;;
42964;SDS011;28604;51.204;22.552;2024-02-21T13:54:51;13.48;;;7.00;;
42964;SDS011;28604;51.204;22.552;2024-02-21T13:57:18;26.20;;;7.30;;
42964;SDS011;28604;51.204;22.552;2024-02-21T13:59:44;22.13;;;7.88;;
42964;SDS011;28604;51.204;22.552;2024-02-21T14:02:10;24.35;;;7.63;;
42964;SDS011;28604;51.204;22.552;2024-02-21T14:04:37;24.13;;;7.85;;
42964;SDS011;28604;51.204;22.552;2024-02-21T14:07:03;20.17;;;7.60;;
42964;SDS011;28604;51.204;22.552;2024-02-21T14:09:29;21.73;;;7.88;;
42964;SDS011;28604;51.204;22.552;2024-02-21T14:11:55;18.13;;;7.03;;
42964;SDS011;28604;51.204;22.552;2024-02-21T14:14:21;20.48;;;6.57;;
42964;SDS011;28604;51.204;22.552;2024-02-21T14:16:47;19.02;;;6.13;;
42964;SDS011;28604;51.204;22.552;2024-02-21T14:19:13;15.43;;;6.40;;
42964;SDS011;28604;51.204;22.552;2024-02-21T14:21:40;18.35;;;6.15;;
42964;SDS011;28604;51.204;22.552;2024-02-21T14:24:06;21.20;;;6.45;;
42964;SDS011;28604;51.204;22.552;2024-02-21T14:26:33;18.27;;;6.13;;
42964;SDS011;28604;51.204;22.552;2024-02-21T14:28:59;17.17;;;7.40;;
42964;SDS011;28604;51.204;22.552;2024-02-21T14:31:25;17.75;;;5.68;;
42964;SDS011;28604;51.204;22.552;2024-02-21T14:33:51;15.77;;;6.25;;
42964;SDS011;28604;51.204;22.552;2024-02-21T14:36:17;20.15;;;7.13;;
42964;SDS011;28604;51.204;22.552;2024-02-21T14:38:43;19.25;;;6.10;;